Terminal Aerodrome Forecast
Issued by NWS Pocatello, ID

Home | Current Version | Previous Version | Text Only | Print | Product List | Glossary On
Versions: 1 2 3 4 5 6 7 8 9 10 11 12 13 14 15 16 17 18 19
000
FTUS45 KPIH 201733
TAFIDA
TAF
KIDA 201733Z 2018/2118 15005KT 6SM BR SCT035 BKN070
     FM210600 VRB05KT P6SM VCSH BKN030 OVC050
     FM211200 36005KT 3SM -SN BR BKN005 OVC015=

USA.gov is the U.S. government's official web portal to all federal, state and local government web resources and services.